Time;durP1;ratioP1;P1;durP2;ratioP2;P2;SDS_P1;SDS_P2;PMS_P1;PMS_P2;Temp;Humidity;BMP_temperature;BMP_pressure;BME280_temperature;BME280_humidity;BME280_pressure;Samples;Min_cycle;Max_cycle;Signal;HPM_P1;HPM_P2
2023/08/18 00:01:33;;;;;;;31.20;29.70;;;23.90;99.90;;;;;;5063203;28;20499;-47
2023/08/18 00:04:00;;;;;;;31.80;30.10;;;23.90;99.90;;;;;;5060669;28;20999;-46
2023/08/18 00:06:27;;;;;;;31.70;29.80;;;23.90;99.90;;;;;;5061225;28;20880;-47
2023/08/18 00:08:53;;;;;;;30.90;29.30;;;23.90;99.90;;;;;;5069501;28;20887;-46
2023/08/18 00:11:20;;;;;;;33.57;31.70;;;23.90;99.90;;;;;;5061188;28;20847;-46
2023/08/18 00:13:47;;;;;;;30.87;29.20;;;23.90;99.90;;;;;;5061180;28;20938;-46
2023/08/18 00:16:14;;;;;;;31.20;29.60;;;23.90;99.90;;;;;;5061395;28;20913;-46
2023/08/18 00:18:42;;;;;;;31.93;30.13;;;23.90;99.90;;;;;;5062182;28;20491;-46
2023/08/18 00:21:09;;;;;;;33.60;31.83;;;23.90;99.90;;;;;;5064531;28;20495;-46
2023/08/18 00:23:36;;;;;;;31.63;30.03;;;23.90;99.90;;;;;;5057619;28;21079;-46
2023/08/18 00:26:03;;;;;;;32.00;30.30;;;23.90;99.90;;;;;;5062592;28;20835;-46
2023/08/18 00:28:30;;;;;;;33.23;31.20;;;23.90;99.90;;;;;;5058793;28;20451;-48
2023/08/18 00:30:57;;;;;;;31.13;29.43;;;23.90;99.90;;;;;;5061132;28;20551;-47
2023/08/18 00:33:24;;;;;;;35.17;32.90;;;23.90;99.90;;;;;;5058700;28;20491;-46
2023/08/18 00:35:52;;;;;;;32.73;31.07;;;23.90;99.90;;;;;;5065856;28;20447;-49
2023/08/18 00:38:19;;;;;;;33.60;31.70;;;23.90;99.90;;;;;;5063660;28;20475;-49
2023/08/18 00:40:45;;;;;;;32.10;30.30;;;23.80;99.90;;;;;;5062268;28;20550;-46
2023/08/18 00:43:12;;;;;;;32.60;31.00;;;23.80;99.90;;;;;;5060507;28;20468;-46
2023/08/18 00:45:39;;;;;;;32.17;30.23;;;23.80;99.90;;;;;;5053943;28;20476;-46
2023/08/18 00:48:07;;;;;;;29.57;28.07;;;23.90;99.90;;;;;;5064053;28;20448;-48
2023/08/18 00:50:34;;;;;;;31.37;29.60;;;23.80;99.90;;;;;;5063658;28;20503;-48
2023/08/18 00:53:02;;;;;;;31.03;29.43;;;23.80;99.90;;;;;;5055421;28;20520;-46
2023/08/18 00:55:30;;;;;;;32.73;31.13;;;23.80;99.90;;;;;;5060645;28;20476;-46
2023/08/18 00:57:58;;;;;;;31.40;29.70;;;23.80;99.90;;;;;;5063854;28;20443;-48
2023/08/18 01:00:25;;;;;;;30.63;29.20;;;23.80;99.90;;;;;;5062095;28;20472;-47
2023/08/18 01:02:52;;;;;;;30.13;28.33;;;23.80;99.90;;;;;;5063038;28;20483;-47
2023/08/18 01:05:19;;;;;;;32.03;30.13;;;23.80;99.90;;;;;;5053498;28;20486;-47
2023/08/18 01:07:46;;;;;;;31.80;30.23;;;23.80;99.90;;;;;;5061732;28;20483;-46
2023/08/18 01:10:15;;;;;;;31.10;29.50;;;23.80;99.90;;;;;;5063609;28;20880;-46
2023/08/18 01:12:49;;;;;;;31.47;29.87;;;23.80;99.90;;;;;;5062197;28;20880;-46
2023/08/18 01:15:18;;;;;;;31.37;29.87;;;23.80;99.90;;;;;;5056838;28;20562;-47
2023/08/18 01:17:51;;;;;;;31.50;29.70;;;23.80;99.90;;;;;;5060373;28;20515;-46
2023/08/18 01:20:19;;;;;;;31.53;29.83;;;23.80;99.90;;;;;;5061614;28;20863;-46
2023/08/18 01:22:49;;;;;;;32.20;30.47;;;23.70;99.90;;;;;;5061180;28;20452;-46
2023/08/18 01:25:17;;;;;;;32.17;30.63;;;23.70;99.90;;;;;;5050847;28;20490;-46
2023/08/18 01:27:44;;;;;;;30.33;28.73;;;23.70;99.90;;;;;;5061061;28;20472;-46
2023/08/18 01:30:12;;;;;;;31.70;30.23;;;23.70;99.90;;;;;;5061204;28;20521;-47
2023/08/18 01:32:45;;;;;;;29.70;28.13;;;23.70;99.90;;;;;;5059962;28;20539;-48
2023/08/18 01:35:13;;;;;;;30.90;29.20;;;23.70;99.90;;;;;;5063167;28;20507;-48
2023/08/18 01:37:42;;;;;;;31.70;30.10;;;23.70;99.90;;;;;;5062119;28;20526;-45
2023/08/18 01:40:13;;;;;;;32.07;30.37;;;23.70;99.90;;;;;;5063247;28;20479;-47
2023/08/18 01:42:41;;;;;;;29.67;28.27;;;23.70;99.90;;;;;;5061979;28;20479;-49
2023/08/18 01:45:11;;;;;;;30.43;28.93;;;23.70;99.90;;;;;;5056676;28;20486;-47
2023/08/18 01:47:38;;;;;;;31.17;29.37;;;23.70;99.90;;;;;;5062756;28;20443;-48
2023/08/18 01:50:06;;;;;;;33.73;31.93;;;23.70;99.90;;;;;;5059475;28;20513;-47
2023/08/18 01:52:33;;;;;;;29.87;28.17;;;23.70;99.90;;;;;;5059605;28;20876;-50
2023/08/18 01:54:59;;;;;;;32.20;30.50;;;23.70;99.90;;;;;;5057642;28;20558;-46
2023/08/18 01:57:26;;;;;;;33.07;31.37;;;23.70;99.90;;;;;;5062695;28;20447;-47
2023/08/18 01:59:55;;;;;;;30.77;29.17;;;23.70;99.90;;;;;;5067037;28;20479;-48
2023/08/18 02:02:21;;;;;;;30.87;29.17;;;23.70;99.90;;;;;;5059105;28;20915;-46
2023/08/18 02:04:48;;;;;;;32.93;31.03;;;23.60;99.90;;;;;;5061214;28;20863;-46
2023/08/18 02:07:15;;;;;;;30.73;29.07;;;23.60;99.90;;;;;;5062863;28;20479;-47
2023/08/18 02:09:42;;;;;;;31.87;30.23;;;23.70;99.90;;;;;;5062111;28;20718;-47
2023/08/18 02:12:09;;;;;;;29.90;28.43;;;23.60;99.90;;;;;;5059296;28;20475;-46
2023/08/18 02:14:36;;;;;;;30.50;29.00;;;23.60;99.90;;;;;;5055974;28;20515;-46
2023/08/18 02:17:04;;;;;;;31.67;29.97;;;23.60;99.90;;;;;;5059428;28;20443;-46
2023/08/18 02:19:31;;;;;;;31.37;29.70;;;23.60;99.90;;;;;;5064206;28;20479;-48
2023/08/18 02:21:58;;;;;;;31.80;30.10;;;23.60;99.90;;;;;;5059292;28;20840;-48
2023/08/18 02:24:25;;;;;;;33.20;31.20;;;23.60;99.90;;;;;;5059381;28;20893;-47
2023/08/18 02:26:52;;;;;;;33.43;31.70;;;23.60;99.90;;;;;;5067154;28;20475;-46
2023/08/18 02:29:19;;;;;;;34.10;32.30;;;23.60;99.90;;;;;;5059140;28;20502;-47
2023/08/18 02:31:47;;;;;;;30.90;29.43;;;23.60;99.90;;;;;;5060195;28;20504;-47
2023/08/18 02:34:16;;;;;;;33.23;31.10;;;23.60;99.90;;;;;;5058974;28;20472;-46
2023/08/18 02:36:43;;;;;;;31.23;29.53;;;23.60;99.90;;;;;;5059836;28;20484;-48
2023/08/18 02:39:10;;;;;;;31.47;29.97;;;23.60;99.90;;;;;;5062619;28;20475;-47
2023/08/18 02:41:37;;;;;;;31.90;30.23;;;23.60;99.90;;;;;;5059793;28;20506;-48
2023/08/18 02:44:04;;;;;;;34.47;32.47;;;23.60;99.90;;;;;;5057222;28;20498;-47
2023/08/18 02:46:31;;;;;;;30.10;28.20;;;23.60;99.90;;;;;;5058983;28;20452;-46
2023/08/18 02:48:58;;;;;;;31.47;29.67;;;23.60;99.90;;;;;;5061853;28;20470;-49
2023/08/18 02:51:26;;;;;;;31.63;29.93;;;23.60;99.90;;;;;;5062542;28;20487;-48
2023/08/18 02:53:53;;;;;;;32.33;30.60;;;23.60;99.90;;;;;;5053143;28;20448;-48
2023/08/18 02:56:21;;;;;;;32.20;30.37;;;23.60;99.90;;;;;;5058903;28;20555;-47
2023/08/18 02:58:48;;;;;;;32.30;30.50;;;23.50;99.90;;;;;;5060258;28;20482;-46
2023/08/18 03:01:14;;;;;;;34.20;32.47;;;23.50;99.90;;;;;;5058627;28;20499;-46
2023/08/18 03:03:41;;;;;;;33.97;31.87;;;23.50;99.90;;;;;;5059101;28;20695;-47
2023/08/18 03:06:09;;;;;;;33.87;32.00;;;23.50;99.90;;;;;;5058099;28;20490;-50
2023/08/18 03:08:39;;;;;;;36.80;34.80;;;23.50;99.90;;;;;;5056569;28;20991;-46
2023/08/18 03:11:06;;;;;;;34.90;33.03;;;23.50;99.90;;;;;;5058702;28;20919;-46
2023/08/18 03:13:33;;;;;;;35.13;33.13;;;23.50;99.90;;;;;;5062043;28;20515;-46
2023/08/18 03:16:00;;;;;;;33.80;32.00;;;23.50;99.90;;;;;;5063683;28;20570;-47
2023/08/18 03:18:27;;;;;;;34.90;32.97;;;23.50;99.90;;;;;;5065773;28;20482;-47
2023/08/18 03:20:59;;;;;;;31.97;30.07;;;23.50;99.90;;;;;;5063443;28;20502;-48
2023/08/18 03:23:26;;;;;;;33.70;31.77;;;23.50;99.90;;;;;;5062101;28;20456;-50
2023/08/18 03:26:00;;;;;;;34.90;32.90;;;23.50;99.90;;;;;;5062657;28;20950;-46
2023/08/18 03:28:27;;;;;;;34.20;32.13;;;23.50;99.90;;;;;;5062239;28;20539;-48
2023/08/18 03:30:58;;;;;;;34.40;32.57;;;23.50;99.90;;;;;;5067937;28;20558;-48
2023/08/18 03:33:25;;;;;;;35.30;33.50;;;23.50;99.90;;;;;;5061939;28;20467;-47
2023/08/18 03:35:52;;;;;;;33.50;31.60;;;23.50;99.90;;;;;;5063045;28;20476;-47
2023/08/18 03:38:19;;;;;;;34.40;32.50;;;23.50;99.90;;;;;;5065676;28;20474;-46
2023/08/18 03:40:46;;;;;;;33.33;31.63;;;23.50;99.90;;;;;;5064376;28;20961;-47
2023/08/18 03:43:14;;;;;;;34.57;32.67;;;23.50;99.90;;;;;;5061887;28;20483;-46
2023/08/18 03:45:41;;;;;;;33.30;31.50;;;23.50;99.90;;;;;;5065241;28;20439;-47
2023/08/18 03:48:08;;;;;;;32.23;30.63;;;23.50;99.90;;;;;;5062578;28;20531;-46
2023/08/18 03:50:35;;;;;;;35.57;33.67;;;23.50;99.90;;;;;;5065685;28;20595;-46
2023/08/18 03:53:02;;;;;;;35.53;33.50;;;23.50;99.90;;;;;;5058544;28;20458;-47
2023/08/18 03:55:29;;;;;;;33.37;31.33;;;23.50;99.90;;;;;;5064870;28;21025;-46
2023/08/18 03:57:56;;;;;;;36.17;34.27;;;23.50;99.90;;;;;;5062803;28;20471;-48
2023/08/18 04:00:24;;;;;;;34.83;33.00;;;23.50;99.90;;;;;;5061435;28;20890;-46
2023/08/18 04:02:51;;;;;;;35.10;33.30;;;23.40;99.90;;;;;;5062804;28;20476;-46
2023/08/18 04:05:18;;;;;;;34.53;32.77;;;23.50;99.90;;;;;;5064927;28;20526;-46
2023/08/18 04:07:45;;;;;;;35.87;33.97;;;23.40;99.90;;;;;;5064207;28;20483;-49
2023/08/18 04:10:12;;;;;;;34.40;32.53;;;23.50;99.90;;;;;;5061252;28;20486;-49
2023/08/18 04:12:39;;;;;;;36.20;34.33;;;23.40;99.90;;;;;;5064692;28;20447;-46
2023/08/18 04:15:07;;;;;;;35.90;34.00;;;23.40;99.90;;;;;;5060019;28;20510;-48
2023/08/18 04:17:35;;;;;;;36.60;34.70;;;23.40;99.90;;;;;;5064720;28;20448;-49
2023/08/18 04:20:04;;;;;;;38.60;36.67;;;23.40;99.90;;;;;;5061510;28;20547;-47
2023/08/18 04:22:32;;;;;;;39.47;37.57;;;23.40;99.90;;;;;;5063760;28;20447;-46
2023/08/18 04:24:59;;;;;;;36.70;34.90;;;23.40;99.90;;;;;;5055720;28;20858;-50
2023/08/18 04:27:26;;;;;;;35.87;33.97;;;23.40;99.90;;;;;;5061156;28;20472;-46
2023/08/18 04:29:54;;;;;;;35.27;33.67;;;23.40;99.90;;;;;;5062331;28;20479;-45
2023/08/18 04:32:20;;;;;;;34.90;33.20;;;23.40;99.90;;;;;;5064115;28;20471;-46
2023/08/18 04:34:49;;;;;;;37.23;35.53;;;23.40;99.90;;;;;;5058934;28;20494;-48
2023/08/18 04:37:16;;;;;;;36.10;34.33;;;23.40;99.90;;;;;;5058998;28;20471;-46
2023/08/18 04:39:43;;;;;;;36.23;33.57;;;23.50;99.90;;;;;;5065023;28;20482;-47
2023/08/18 04:42:09;;;;;;;36.97;34.40;;;23.50;99.90;;;;;;5060410;28;20503;-49
2023/08/18 04:44:36;;;;;;;37.53;34.43;;;23.50;99.90;;;;;;5060479;28;20472;-49
2023/08/18 04:47:05;;;;;;;39.67;37.00;;;23.50;99.90;;;;;;5063604;28;20497;-51
2023/08/18 04:49:32;;;;;;;36.47;34.00;;;23.50;99.90;;;;;;5062262;28;20530;-55
2023/08/18 04:52:00;;;;;;;33.80;31.27;;;23.50;99.90;;;;;;5055812;28;20483;-45
2023/08/18 04:54:27;;;;;;;37.43;35.43;;;23.50;99.90;;;;;;5060621;28;20701;-48
2023/08/18 04:56:59;;;;;;;38.27;36.37;;;23.60;99.90;;;;;;5061916;28;20555;-47
2023/08/18 04:59:26;;;;;;;38.73;36.37;;;23.60;99.90;;;;;;5063970;28;20506;-46
2023/08/18 05:01:53;;;;;;;35.27;33.20;;;23.60;99.90;;;;;;5062120;28;20455;-47
2023/08/18 05:04:20;;;;;;;33.47;31.93;;;23.60;99.90;;;;;;5060440;28;20468;-47
2023/08/18 05:06:46;;;;;;;36.07;34.20;;;23.60;99.90;;;;;;5060703;28;20438;-46
2023/08/18 05:09:15;;;;;;;35.10;33.37;;;23.60;99.90;;;;;;5063758;28;20467;-45
2023/08/18 05:11:42;;;;;;;34.57;32.77;;;23.60;99.90;;;;;;5063704;28;20937;-47
2023/08/18 05:14:08;;;;;;;33.20;31.70;;;23.60;99.90;;;;;;5052354;28;20479;-46
2023/08/18 05:16:35;;;;;;;34.53;32.73;;;23.60;99.90;;;;;;5060609;28;20530;-47
2023/08/18 05:19:04;;;;;;;34.60;32.70;;;23.60;99.90;;;;;;5063167;28;20498;-47
2023/08/18 05:21:31;;;;;;;32.80;30.90;;;23.60;99.90;;;;;;5063884;28;20998;-47
2023/08/18 05:23:58;;;;;;;32.03;30.50;;;23.60;99.90;;;;;;5061792;28;20464;-46
2023/08/18 05:26:26;;;;;;;32.70;31.20;;;23.60;99.90;;;;;;5060829;28;20475;-47
2023/08/18 05:28:53;;;;;;;32.17;30.53;;;23.60;99.90;;;;;;5061606;28;20468;-47
2023/08/18 05:31:20;;;;;;;31.47;30.07;;;23.60;99.90;;;;;;5065474;28;20927;-47
2023/08/18 05:33:47;;;;;;;31.97;30.57;;;23.60;99.90;;;;;;5065726;28;20446;-47
2023/08/18 05:36:14;;;;;;;30.90;29.33;;;23.70;99.90;;;;;;5062553;28;20504;-50
2023/08/18 05:38:40;;;;;;;31.30;30.00;;;23.60;99.90;;;;;;5060390;28;20479;-46
2023/08/18 05:41:12;;;;;;;31.30;30.00;;;23.60;99.90;;;;;;5063180;28;20495;-50
2023/08/18 05:43:40;;;;;;;29.47;27.97;;;23.70;99.90;;;;;;5063841;28;20463;-50
2023/08/18 05:46:08;;;;;;;33.23;31.83;;;23.70;99.90;;;;;;5060481;28;20467;-49
2023/08/18 05:48:35;;;;;;;36.27;34.73;;;23.70;99.90;;;;;;5060168;28;20471;-47
2023/08/18 05:51:02;;;;;;;33.27;31.67;;;23.70;99.90;;;;;;5062459;28;20460;-47
2023/08/18 05:53:31;;;;;;;31.97;30.37;;;23.70;99.90;;;;;;5063733;28;20468;-46
2023/08/18 05:55:58;;;;;;;30.37;29.07;;;23.70;99.90;;;;;;5062047;28;20474;-47
2023/08/18 05:58:24;;;;;;;28.80;27.57;;;23.70;99.90;;;;;;5060556;28;20531;-47
2023/08/18 06:00:53;;;;;;;27.73;26.43;;;23.70;99.90;;;;;;5061080;28;20492;-48
2023/08/18 06:03:20;;;;;;;28.60;27.30;;;23.70;99.90;;;;;;5064064;28;20963;-48
2023/08/18 06:05:47;;;;;;;31.40;30.00;;;23.70;99.90;;;;;;5064218;28;20436;-46
2023/08/18 06:08:14;;;;;;;29.63;28.23;;;23.70;99.90;;;;;;5061608;28;20443;-49
2023/08/18 06:10:41;;;;;;;30.03;28.73;;;23.70;99.90;;;;;;5060608;28;20494;-47
2023/08/18 06:13:08;;;;;;;30.77;29.30;;;23.70;99.90;;;;;;5063190;28;20463;-49
2023/08/18 06:15:35;;;;;;;31.67;30.10;;;23.70;99.90;;;;;;5064414;28;20517;-46
2023/08/18 06:18:04;;;;;;;31.33;29.83;;;23.70;99.90;;;;;;5061868;28;20479;-46
2023/08/18 06:20:31;;;;;;;31.30;29.80;;;23.70;99.90;;;;;;5060156;28;20490;-51
2023/08/18 06:22:58;;;;;;;31.60;30.20;;;23.70;99.90;;;;;;5061539;28;20875;-47
2023/08/18 06:25:24;;;;;;;33.10;31.67;;;23.70;99.90;;;;;;5064121;28;20488;-47
2023/08/18 06:27:51;;;;;;;33.67;32.03;;;23.70;99.90;;;;;;5063301;28;20471;-46
2023/08/18 06:30:18;;;;;;;31.33;29.90;;;23.60;99.90;;;;;;5060167;28;20436;-46
2023/08/18 06:32:46;;;;;;;32.40;30.80;;;23.70;99.90;;;;;;5060357;28;20468;-46
2023/08/18 06:35:14;;;;;;;31.87;30.37;;;23.70;99.90;;;;;;5052062;28;20471;-49
2023/08/18 06:37:41;;;;;;;32.70;31.20;;;23.70;99.90;;;;;;5060476;28;20476;-48
2023/08/18 06:40:09;;;;;;;30.43;29.03;;;23.70;99.90;;;;;;5062540;28;20464;-48
2023/08/18 06:42:36;;;;;;;33.73;32.33;;;23.70;99.90;;;;;;5063494;28;20509;-48
2023/08/18 06:45:04;;;;;;;32.70;31.00;;;23.70;99.90;;;;;;5065616;28;20466;-49
2023/08/18 06:47:31;;;;;;;30.37;28.90;;;23.70;99.90;;;;;;5064243;28;20798;-46
2023/08/18 06:49:59;;;;;;;31.70;30.20;;;23.70;99.90;;;;;;5065313;28;20467;-47
2023/08/18 06:52:28;;;;;;;31.77;30.17;;;23.70;99.90;;;;;;5067539;28;20869;-49
2023/08/18 06:54:55;;;;;;;32.70;31.10;;;23.70;99.90;;;;;;5066124;28;20446;-47
2023/08/18 06:57:22;;;;;;;32.70;31.10;;;23.60;99.90;;;;;;5063738;28;20510;-48
2023/08/18 06:59:49;;;;;;;31.60;30.00;;;23.60;99.90;;;;;;5064045;28;20428;-49
2023/08/18 07:02:16;;;;;;;31.20;29.73;;;23.60;99.90;;;;;;5067393;28;20520;-49
2023/08/18 07:04:43;;;;;;;34.13;32.43;;;23.60;99.90;;;;;;5066733;28;20475;-47
2023/08/18 07:07:09;;;;;;;34.33;32.73;;;23.60;99.90;;;;;;5063764;28;20459;-47
2023/08/18 07:09:38;;;;;;;32.50;30.90;;;23.60;99.90;;;;;;5063168;28;20471;-47
2023/08/18 07:12:05;;;;;;;31.23;29.73;;;23.60;99.90;;;;;;5065203;28;20507;-46
2023/08/18 07:14:32;;;;;;;32.67;30.90;;;23.60;99.90;;;;;;5066839;28;20466;-46
2023/08/18 07:16:59;;;;;;;31.43;29.93;;;23.60;99.90;;;;;;5065046;28;20507;-49
2023/08/18 07:19:26;;;;;;;33.00;31.50;;;23.60;99.90;;;;;;5063078;28;20479;-47
2023/08/18 07:21:53;;;;;;;31.57;30.03;;;23.60;99.90;;;;;;5063340;28;20499;-49
2023/08/18 07:24:20;;;;;;;32.70;31.20;;;23.60;99.90;;;;;;5066664;28;20810;-47
2023/08/18 07:26:48;;;;;;;33.87;32.27;;;23.60;99.90;;;;;;5066737;28;20850;-47
2023/08/18 07:29:15;;;;;;;32.63;31.13;;;23.60;99.90;;;;;;5054910;28;20468;-46
2023/08/18 07:31:42;;;;;;;33.60;32.00;;;23.60;99.90;;;;;;5062606;28;20498;-46
2023/08/18 07:34:09;;;;;;;31.67;29.87;;;23.60;99.90;;;;;;5065318;28;20474;-47
2023/08/18 07:36:38;;;;;;;31.80;30.40;;;23.60;99.90;;;;;;5066503;28;20513;-46
2023/08/18 07:39:07;;;;;;;32.60;31.10;;;23.60;99.90;;;;;;5064138;28;20447;-47
2023/08/18 07:41:34;;;;;;;31.87;30.37;;;23.60;99.90;;;;;;5062674;28;20808;-46
2023/08/18 07:44:02;;;;;;;32.83;31.33;;;23.60;99.90;;;;;;5064030;28;20478;-46
2023/08/18 07:46:30;;;;;;;32.13;30.63;;;23.60;99.90;;;;;;5066615;28;20435;-47
2023/08/18 07:48:57;;;;;;;32.10;30.70;;;23.60;99.90;;;;;;5065048;28;20444;-47
2023/08/18 07:51:24;;;;;;;32.50;31.10;;;23.60;99.90;;;;;;5062588;28;20487;-46
2023/08/18 07:53:51;;;;;;;31.83;30.43;;;23.60;99.90;;;;;;5061834;28;20875;-47
2023/08/18 07:56:18;;;;;;;31.10;29.73;;;23.60;99.90;;;;;;5065632;28;20474;-47
2023/08/18 07:58:45;;;;;;;32.37;30.87;;;23.60;99.90;;;;;;5066172;28;20478;-47
2023/08/18 08:01:13;;;;;;;34.17;32.40;;;23.60;99.90;;;;;;5062985;28;20499;-46
2023/08/18 08:03:40;;;;;;;31.60;30.00;;;23.60;99.90;;;;;;5062346;28;20444;-49
2023/08/18 08:06:07;;;;;;;30.60;28.83;;;23.60;99.90;;;;;;5064700;28;20476;-47
2023/08/18 08:08:34;;;;;;;32.77;30.87;;;23.60;99.90;;;;;;5065630;28;20567;-47
2023/08/18 08:11:01;;;;;;;30.20;28.80;;;23.60;99.90;;;;;;5063846;28;20490;-48
2023/08/18 08:13:28;;;;;;;32.17;30.77;;;23.60;99.90;;;;;;5062295;28;20472;-48
2023/08/18 08:15:55;;;;;;;31.67;30.27;;;23.70;99.90;;;;;;5062572;28;20483;-47
2023/08/18 08:18:23;;;;;;;32.87;31.30;;;23.60;99.90;;;;;;5065987;28;20467;-48
2023/08/18 08:20:50;;;;;;;31.60;29.93;;;23.70;99.90;;;;;;5065659;28;20487;-46
2023/08/18 08:23:17;;;;;;;32.20;30.60;;;23.70;99.90;;;;;;5054057;28;20505;-48
2023/08/18 08:25:45;;;;;;;31.50;29.77;;;23.70;99.90;;;;;;5062537;28;20468;-48
2023/08/18 08:28:12;;;;;;;33.97;32.37;;;23.70;99.90;;;;;;5065035;28;20825;-49
2023/08/18 08:30:44;;;;;;;33.10;31.53;;;23.70;99.90;;;;;;5067709;28;20514;-50
2023/08/18 08:33:11;;;;;;;31.67;30.17;;;23.70;99.90;;;;;;5064465;28;20448;-47
2023/08/18 08:35:40;;;;;;;32.43;30.90;;;23.70;99.90;;;;;;5065495;28;20548;-47
2023/08/18 08:38:06;;;;;;;31.30;29.90;;;23.70;99.90;;;;;;5063702;28;20565;-47
2023/08/18 08:40:34;;;;;;;30.63;29.13;;;23.70;99.90;;;;;;5062345;28;20488;-50
2023/08/18 08:43:01;;;;;;;31.57;30.07;;;23.70;99.90;;;;;;5063093;28;20446;-49
2023/08/18 08:45:28;;;;;;;31.30;29.63;;;23.70;99.90;;;;;;5065480;28;20943;-47
2023/08/18 08:47:57;;;;;;;31.70;30.10;;;23.70;99.90;;;;;;5064602;28;20432;-47
2023/08/18 08:50:28;;;;;;;30.77;29.33;;;23.70;99.90;;;;;;5062108;28;20476;-48
2023/08/18 08:52:59;;;;;;;31.20;29.63;;;23.80;99.90;;;;;;5062743;28;20923;-51
2023/08/18 08:55:31;;;;;;;32.97;31.43;;;23.80;99.90;;;;;;5065938;28;20464;-48
2023/08/18 08:57:59;;;;;;;31.90;30.40;;;23.80;99.90;;;;;;5065063;28;20865;-46
2023/08/18 09:00:26;;;;;;;30.80;29.40;;;23.80;99.90;;;;;;5061741;28;20496;-47
2023/08/18 09:02:53;;;;;;;31.00;29.40;;;23.80;99.90;;;;;;5061678;28;20444;-47
2023/08/18 09:05:21;;;;;;;33.37;31.53;;;23.80;99.90;;;;;;5065254;28;20557;-47
2023/08/18 09:07:48;;;;;;;32.37;30.77;;;23.80;99.90;;;;;;5065051;28;20431;-47
2023/08/18 09:10:16;;;;;;;30.33;28.83;;;23.80;99.90;;;;;;5061639;28;20582;-46
2023/08/18 09:12:45;;;;;;;30.20;28.87;;;23.80;99.90;;;;;;5061172;28;20479;-46
2023/08/18 09:15:12;;;;;;;30.57;29.20;;;23.80;99.90;;;;;;5064032;28;20468;-46
2023/08/18 09:17:39;;;;;;;31.30;29.80;;;23.90;99.90;;;;;;5064673;28;20562;-47
2023/08/18 09:20:07;;;;;;;30.17;28.87;;;23.80;99.90;;;;;;5062638;28;20710;-47
2023/08/18 09:22:34;;;;;;;30.83;29.23;;;23.90;99.90;;;;;;5061173;28;20907;-46
2023/08/18 09:25:01;;;;;;;31.10;29.80;;;23.90;99.90;;;;;;5062345;28;20479;-49
2023/08/18 09:27:30;;;;;;;30.50;29.10;;;23.90;99.90;;;;;;5064501;28;20689;-50
2023/08/18 09:29:58;;;;;;;31.30;29.90;;;23.90;99.90;;;;;;5064167;28;20440;-47
2023/08/18 09:32:27;;;;;;;30.17;28.87;;;23.90;99.90;;;;;;5060672;28;20570;-49
2023/08/18 09:34:56;;;;;;;31.20;29.90;;;23.90;99.90;;;;;;5061259;28;20513;-48
2023/08/18 09:37:30;;;;;;;31.70;30.17;;;23.90;99.90;;;;;;5064201;28;20467;-47
2023/08/18 09:39:57;;;;;;;31.10;29.80;;;24.00;99.90;;;;;;5063937;28;20443;-47
2023/08/18 09:42:24;;;;;;;30.63;29.23;;;24.00;99.90;;;;;;5060765;28;20494;-47
2023/08/18 09:44:53;;;;;;;29.70;28.33;;;24.00;99.90;;;;;;5061448;28;20857;-47
2023/08/18 09:47:22;;;;;;;30.90;29.50;;;24.00;99.90;;;;;;5052693;28;20460;-47
2023/08/18 09:49:51;;;;;;;30.63;29.23;;;24.00;99.90;;;;;;5061327;28;20968;-46
2023/08/18 09:52:19;;;;;;;31.83;30.23;;;24.10;99.90;;;;;;5063106;28;20483;-48
2023/08/18 09:54:55;;;;;;;31.90;30.50;;;24.00;99.90;;;;;;5064405;28;20463;-50
2023/08/18 09:57:31;;;;;;;30.27;28.87;;;24.00;99.90;;;;;;5052855;28;20506;-48
2023/08/18 10:00:00;;;;;;;31.70;30.27;;;24.10;99.90;;;;;;5061007;28;20954;-48
2023/08/18 10:02:32;;;;;;;31.67;30.27;;;24.00;99.90;;;;;;5064740;28;20471;-49
2023/08/18 10:04:59;;;;;;;32.20;30.70;;;24.10;99.90;;;;;;5064861;28;20990;-50
2023/08/18 10:07:27;;;;;;;32.13;30.63;;;24.10;99.90;;;;;;5062007;28;20471;-47
2023/08/18 10:09:55;;;;;;;32.90;31.50;;;24.10;99.90;;;;;;5061764;28;20468;-50
2023/08/18 10:12:23;;;;;;;31.90;30.43;;;24.10;99.90;;;;;;5053377;28;20499;-47
2023/08/18 10:14:52;;;;;;;32.70;31.17;;;24.10;99.90;;;;;;5061664;28;20578;-52
2023/08/18 10:17:24;;;;;;;30.53;29.13;;;24.20;99.90;;;;;;5065951;28;20503;-48
2023/08/18 10:19:54;;;;;;;32.27;30.87;;;24.20;99.90;;;;;;5070359;28;20439;-50
2023/08/18 10:22:23;;;;;;;31.93;30.43;;;24.20;99.90;;;;;;5058287;28;20487;-52
2023/08/18 10:24:51;;;;;;;30.40;28.90;;;24.20;99.90;;;;;;5067130;28;20468;-48
2023/08/18 10:27:37;;;;;;;31.23;29.73;;;24.20;99.90;;;;;;5070011;28;20459;-47
2023/08/18 10:30:24;;;;;;;31.27;29.87;;;24.20;99.90;;;;;;5069121;28;20948;-47
2023/08/18 10:32:54;;;;;;;32.63;31.10;;;24.20;99.90;;;;;;5066921;28;20935;-46
2023/08/18 10:35:22;;;;;;;31.00;29.70;;;24.20;99.90;;;;;;5070209;28;20814;-47
2023/08/18 10:37:52;;;;;;;32.67;31.17;;;24.20;99.90;;;;;;5070468;28;20506;-49
2023/08/18 10:40:26;;;;;;;30.63;29.03;;;24.20;99.90;;;;;;5067271;28;20948;-47
2023/08/18 10:42:59;;;;;;;32.63;31.13;;;24.20;99.90;;;;;;5066939;28;20472;-47
2023/08/18 10:45:28;;;;;;;33.40;31.80;;;24.20;99.90;;;;;;5059060;28;20468;-48
2023/08/18 10:47:58;;;;;;;32.43;30.87;;;24.20;99.90;;;;;;5066950;28;20453;-48
2023/08/18 10:50:27;;;;;;;30.90;29.50;;;24.20;99.90;;;;;;5058491;28;20483;-47
2023/08/18 10:52:55;;;;;;;32.30;30.80;;;24.30;99.90;;;;;;5066680;28;20471;-50
2023/08/18 10:55:22;;;;;;;33.30;31.53;;;24.30;99.90;;;;;;5058738;28;20944;-46
2023/08/18 10:57:49;;;;;;;33.47;31.53;;;24.30;99.90;;;;;;5067605;28;20479;-48
2023/08/18 11:00:18;;;;;;;33.50;31.83;;;24.30;99.90;;;;;;5070433;28;20476;-47
2023/08/18 11:02:45;;;;;;;32.90;31.20;;;24.30;99.90;;;;;;5070318;28;20441;-49
2023/08/18 11:05:14;;;;;;;32.23;30.43;;;24.30;99.90;;;;;;5068694;28;20493;-48
2023/08/18 11:07:41;;;;;;;32.63;31.00;;;24.30;99.90;;;;;;5066754;28;20467;-48
2023/08/18 11:10:16;;;;;;;34.17;32.67;;;24.30;99.90;;;;;;5067844;28;20483;-46
2023/08/18 11:12:43;;;;;;;32.57;30.97;;;24.40;99.90;;;;;;5070282;28;20782;-49
2023/08/18 11:15:11;;;;;;;33.23;31.63;;;24.30;99.90;;;;;;5068187;28;20479;-46
2023/08/18 11:17:38;;;;;;;33.33;31.73;;;24.40;99.90;;;;;;5065622;28;20504;-47
2023/08/18 11:20:07;;;;;;;32.47;30.77;;;24.40;99.90;;;;;;5066277;28;20527;-48
2023/08/18 11:22:37;;;;;;;34.37;32.67;;;24.40;99.90;;;;;;5068915;28;20445;-46
2023/08/18 11:25:05;;;;;;;33.53;31.87;;;24.40;99.90;;;;;;5068179;28;20445;-46
2023/08/18 11:27:32;;;;;;;33.80;32.00;;;24.50;99.90;;;;;;5065651;28;20436;-45
2023/08/18 11:29:59;;;;;;;36.13;34.23;;;24.50;99.90;;;;;;5062055;28;20454;-46
2023/08/18 11:32:27;;;;;;;34.03;32.43;;;24.50;99.90;;;;;;5065679;28;20475;-46
2023/08/18 11:34:54;;;;;;;34.93;33.13;;;24.50;99.90;;;;;;5065747;28;20523;-46
2023/08/18 11:37:22;;;;;;;33.77;32.17;;;24.60;99.90;;;;;;5062599;28;20568;-46
2023/08/18 11:39:51;;;;;;;35.70;34.00;;;24.60;99.90;;;;;;5062154;28;20440;-46
2023/08/18 11:42:18;;;;;;;35.30;33.60;;;24.60;99.90;;;;;;5064511;28;20500;-46
2023/08/18 11:44:45;;;;;;;36.27;34.57;;;24.60;99.90;;;;;;5065451;28;20439;-46
2023/08/18 11:47:12;;;;;;;33.53;32.03;;;24.60;99.90;;;;;;5063572;28;20439;-45
2023/08/18 11:49:39;;;;;;;37.40;35.40;;;24.60;99.90;;;;;;5062047;28;20440;-46
2023/08/18 11:52:06;;;;;;;35.93;34.23;;;24.60;99.90;;;;;;5062503;28;20995;-46
2023/08/18 11:54:34;;;;;;;36.53;34.77;;;24.60;99.90;;;;;;5065339;28;20878;-45
2023/08/18 11:57:04;;;;;;;36.70;35.03;;;24.70;99.90;;;;;;5064834;28;20531;-46
2023/08/18 11:59:31;;;;;;;34.50;32.90;;;24.70;99.90;;;;;;5061774;28;20472;-46
2023/08/18 12:01:59;;;;;;;40.57;38.37;;;24.70;99.90;;;;;;5061682;28;20919;-46
2023/08/18 12:04:27;;;;;;;37.47;35.60;;;24.70;99.90;;;;;;5053869;28;20468;-46
2023/08/18 12:06:54;;;;;;;36.93;35.13;;;24.70;99.90;;;;;;5061803;28;20468;-46
2023/08/18 12:09:23;;;;;;;35.40;33.70;;;24.70;99.90;;;;;;5064392;28;20466;-46
2023/08/18 12:11:50;;;;;;;36.40;34.70;;;24.70;99.90;;;;;;5064848;28;20904;-48
2023/08/18 12:14:19;;;;;;;37.83;35.83;;;24.70;99.90;;;;;;5062753;28;20475;-45
2023/08/18 12:16:46;;;;;;;35.70;33.97;;;24.80;99.90;;;;;;5061552;28;20508;-45
2023/08/18 12:19:13;;;;;;;35.27;33.67;;;24.80;99.90;;;;;;5063083;28;20916;-45
2023/08/18 12:21:40;;;;;;;35.00;33.20;;;24.80;99.90;;;;;;5064819;28;20484;-45
2023/08/18 12:24:07;;;;;;;35.20;33.47;;;24.80;99.90;;;;;;5063749;28;20478;-46
2023/08/18 12:26:35;;;;;;;36.10;34.40;;;24.80;99.90;;;;;;5061327;28;20468;-46
2023/08/18 12:29:03;;;;;;;36.03;34.30;;;24.80;99.90;;;;;;5061163;28;20473;-46
2023/08/18 12:31:31;;;;;;;37.90;35.90;;;24.90;99.90;;;;;;5064665;28;20469;-46